createdAt,value
2023-06-17T00:01:57.875Z,17.04
2023-06-17T00:04:33.919Z,17.05
2023-06-17T00:07:02.768Z,17.00
2023-06-17T00:09:32.668Z,16.95
2023-06-17T00:12:03.833Z,16.95
2023-06-17T00:14:32.624Z,16.91
2023-06-17T00:17:02.147Z,16.85
2023-06-17T00:19:30.623Z,16.80
2023-06-17T00:21:58.948Z,16.74
2023-06-17T00:24:27.494Z,16.70
2023-06-17T00:26:57.056Z,16.67
2023-06-17T00:29:25.444Z,16.65
2023-06-17T00:31:54.045Z,16.60
2023-06-17T00:34:22.429Z,16.57
2023-06-17T00:36:50.797Z,16.54
2023-06-17T00:39:20.353Z,16.53
2023-06-17T00:41:48.773Z,16.50
2023-06-17T00:44:17.339Z,16.47
2023-06-17T00:46:49.939Z,16.43
2023-06-17T00:49:19.263Z,16.47
2023-06-17T00:52:00.133Z,16.47
2023-06-17T00:54:33.865Z,16.50
2023-06-17T00:57:04.928Z,16.52
2023-06-17T00:59:34.360Z,16.57
2023-06-17T01:02:02.808Z,16.61
2023-06-17T01:04:33.132Z,16.61
2023-06-17T01:07:22.451Z,16.64
2023-06-17T01:10:04.279Z,16.68
2023-06-17T01:12:33.772Z,16.64
2023-06-17T01:15:04.397Z,16.67
2023-06-17T01:17:34.627Z,16.73
2023-06-17T01:20:07.358Z,16.73
2023-06-17T01:22:38.112Z,16.74
2023-06-17T01:25:07.989Z,16.78
2023-06-17T01:27:37.197Z,16.78
2023-06-17T01:30:06.344Z,16.74
2023-06-17T01:32:35.105Z,16.77
2023-06-17T01:35:16.269Z,16.74
2023-06-17T01:37:51.672Z,16.73
2023-06-17T01:40:23.176Z,16.68
2023-06-17T01:42:54.089Z,16.65
2023-06-17T01:45:23.866Z,16.65
2023-06-17T01:47:52.593Z,16.64
2023-06-17T01:50:21.543Z,16.65
2023-06-17T01:52:50.169Z,16.68
2023-06-17T01:55:19.479Z,16.68
2023-06-17T01:57:48.687Z,16.65
2023-06-17T02:00:17.600Z,16.65
2023-06-17T02:02:46.541Z,16.65
2023-06-17T02:05:15.043Z,16.64
2023-06-17T02:07:44.139Z,16.67
2023-06-17T02:10:12.728Z,16.65
2023-06-17T02:12:41.118Z,16.67
2023-06-17T02:15:10.087Z,16.65
2023-06-17T02:17:38.670Z,16.64
2023-06-17T02:20:07.980Z,16.63
2023-06-17T02:22:36.497Z,16.63
2023-06-17T02:25:06.619Z,16.61
2023-06-17T02:27:35.314Z,16.59
2023-06-17T02:30:03.918Z,16.59
2023-06-17T02:32:32.680Z,16.57
2023-06-17T02:35:01.158Z,16.56
2023-06-17T02:37:30.161Z,16.56
2023-06-17T02:39:58.474Z,16.59
2023-06-17T02:42:26.936Z,16.61
2023-06-17T02:44:55.372Z,16.65
2023-06-17T02:47:23.965Z,16.70
2023-06-17T02:49:52.486Z,16.73
2023-06-17T02:52:22.380Z,16.77
2023-06-17T02:54:51.917Z,16.82
2023-06-17T02:57:20.436Z,16.85
2023-06-17T02:59:49.149Z,16.87
2023-06-17T03:02:17.657Z,16.88
2023-06-17T03:04:46.599Z,16.89
2023-06-17T03:07:17.112Z,16.95
2023-06-17T03:09:45.696Z,17.01
2023-06-17T03:12:14.223Z,17.12
2023-06-17T03:14:42.995Z,17.20
2023-06-17T03:17:13.338Z,17.22
2023-06-17T03:19:41.844Z,17.30
2023-06-17T03:22:10.291Z,17.36
2023-06-17T03:24:38.921Z,17.45
2023-06-17T03:27:07.583Z,17.47
2023-06-17T03:29:36.595Z,17.56
2023-06-17T03:32:05.378Z,17.57
2023-06-17T03:34:34.611Z,17.57
2023-06-17T03:37:04.117Z,17.59
2023-06-17T03:39:32.693Z,17.54
2023-06-17T03:42:01.128Z,17.50
2023-06-17T03:44:29.492Z,17.47
2023-06-17T03:46:58.604Z,17.45
2023-06-17T03:49:27.071Z,17.43
2023-06-17T03:51:56.388Z,17.39
2023-06-17T03:54:24.733Z,17.40
2023-06-17T03:56:53.229Z,17.43
2023-06-17T03:59:21.657Z,17.49
2023-06-17T04:01:50.087Z,17.53
2023-06-17T04:04:18.589Z,17.63
2023-06-17T04:06:47.015Z,17.81
2023-06-17T04:09:15.586Z,17.98
2023-06-17T04:11:43.962Z,18.18
2023-06-17T04:14:12.383Z,18.32
2023-06-17T04:16:43.205Z,18.49
2023-06-17T04:19:15.352Z,18.64
2023-06-17T04:21:43.959Z,18.78
2023-06-17T04:24:14.943Z,18.91
2023-06-17T04:26:46.189Z,18.95
2023-06-17T04:29:15.890Z,19.07
2023-06-17T04:31:47.509Z,19.14
2023-06-17T04:34:23.232Z,19.18
2023-06-17T04:36:59.386Z,19.15
2023-06-17T04:39:28.267Z,19.18
2023-06-17T04:41:57.798Z,19.26
2023-06-17T04:44:26.397Z,19.36
2023-06-17T04:46:55.074Z,19.32
2023-06-17T04:49:24.347Z,19.29
2023-06-17T04:51:53.949Z,19.38
2023-06-17T04:54:25.905Z,19.52
2023-06-17T04:56:55.317Z,19.69
2023-06-17T04:59:23.855Z,19.83
2023-06-17T05:01:52.321Z,19.97
2023-06-17T05:04:20.856Z,20.12
2023-06-17T05:06:49.601Z,20.20
2023-06-17T05:09:18.106Z,20.25
2023-06-17T05:11:47.486Z,20.35
2023-06-17T05:14:16.519Z,20.42
2023-06-17T05:16:45.088Z,20.53
2023-06-17T05:19:13.648Z,20.60
2023-06-17T05:21:43.511Z,20.66
2023-06-17T05:24:12.034Z,20.66
2023-06-17T05:26:40.916Z,20.67
2023-06-17T05:29:09.420Z,20.63
2023-06-17T05:31:37.883Z,20.66
2023-06-17T05:34:06.254Z,20.70
2023-06-17T05:36:34.762Z,20.70
2023-06-17T05:39:03.371Z,20.67
2023-06-17T05:41:31.974Z,20.70
2023-06-17T05:44:00.349Z,20.66
2023-06-17T05:46:28.877Z,20.67
2023-06-17T05:48:57.470Z,20.70
2023-06-17T05:51:26.602Z,20.65
2023-06-17T05:53:55.349Z,20.72
2023-06-17T05:56:23.825Z,20.80
2023-06-17T05:58:53.330Z,20.87
2023-06-17T06:01:22.006Z,20.91
2023-06-17T06:03:50.585Z,21.00
2023-06-17T06:06:19.112Z,21.11
2023-06-17T06:08:47.852Z,21.22
2023-06-17T06:11:16.798Z,21.35
2023-06-17T06:13:45.514Z,21.46
2023-06-17T06:16:14.149Z,21.50
2023-06-17T06:18:42.884Z,21.53
2023-06-17T06:21:11.538Z,21.58
2023-06-17T06:23:40.044Z,21.58
2023-06-17T06:26:08.611Z,21.55
2023-06-17T06:28:37.444Z,21.65
2023-06-17T06:31:06.007Z,21.69
2023-06-17T06:33:36.677Z,21.73
2023-06-17T06:36:05.448Z,21.85
2023-06-17T06:38:36.501Z,22.00
2023-06-17T06:41:05.116Z,22.10
2023-06-17T06:43:33.732Z,22.21
2023-06-17T06:46:02.633Z,22.27
2023-06-17T06:48:31.567Z,22.31
2023-06-17T06:51:00.272Z,22.40
2023-06-17T06:53:28.938Z,22.45
2023-06-17T06:56:01.537Z,22.41
2023-06-17T06:58:30.962Z,22.47
2023-06-17T07:00:59.653Z,22.58
2023-06-17T07:03:28.659Z,22.75
2023-06-17T07:05:57.826Z,22.85
2023-06-17T07:08:26.609Z,22.90
2023-06-17T07:10:56.370Z,22.93
2023-06-17T07:13:24.965Z,22.90
2023-06-17T07:15:54.024Z,22.79
2023-06-17T07:18:23.734Z,22.66
2023-06-17T07:20:52.409Z,22.60
2023-06-17T07:23:21.297Z,22.58
2023-06-17T07:25:50.100Z,22.60
2023-06-17T07:28:19.299Z,22.69
2023-06-17T07:30:49.138Z,22.80
2023-06-17T07:33:18.210Z,22.92
2023-06-17T07:35:47.009Z,22.95
2023-06-17T07:38:15.815Z,23.10
2023-06-17T07:40:48.154Z,23.30
2023-06-17T07:43:16.850Z,23.37
2023-06-17T07:45:45.452Z,23.34
2023-06-17T07:48:14.255Z,23.48
2023-06-17T07:50:42.927Z,23.69
2023-06-17T07:53:11.632Z,23.78
2023-06-17T07:55:40.908Z,23.89
2023-06-17T07:58:10.076Z,23.93
2023-06-17T08:00:38.833Z,24.00
2023-06-17T08:03:08.064Z,24.09
2023-06-17T08:05:45.526Z,24.13
2023-06-17T08:08:14.271Z,24.28
2023-06-17T08:10:43.047Z,24.30
2023-06-17T08:13:12.271Z,24.33
2023-06-17T08:15:43.219Z,24.35
2023-06-17T08:18:11.948Z,24.38
2023-06-17T08:20:43.512Z,24.42
2023-06-17T08:23:12.641Z,24.40
2023-06-17T08:25:44.088Z,24.48
2023-06-17T08:28:12.727Z,24.55
2023-06-17T08:30:42.643Z,24.75
2023-06-17T08:33:11.742Z,24.90
2023-06-17T08:35:43.361Z,25.09
2023-06-17T08:38:11.818Z,25.22
2023-06-17T08:40:47.053Z,25.37
2023-06-17T08:43:20.812Z,25.51
2023-06-17T08:45:52.973Z,25.55
2023-06-17T08:48:21.755Z,25.60
2023-06-17T08:50:51.533Z,25.64
2023-06-17T08:53:20.882Z,25.72
2023-06-17T08:55:49.332Z,25.79
2023-06-17T08:58:17.953Z,25.95
2023-06-17T09:00:46.500Z,26.17
2023-06-17T09:03:17.332Z,26.47
2023-06-17T09:05:45.720Z,26.67
2023-06-17T09:08:26.032Z,26.84
2023-06-17T09:10:55.051Z,27.05
2023-06-17T09:13:23.638Z,27.17
2023-06-17T09:15:52.139Z,27.29
2023-06-17T09:18:21.983Z,27.34
2023-06-17T09:20:52.974Z,27.43
2023-06-17T09:23:21.931Z,27.49
2023-06-17T09:26:04.458Z,27.63
2023-06-17T09:28:33.191Z,27.72
2023-06-17T09:31:06.427Z,27.74
2023-06-17T09:33:34.944Z,27.64
2023-06-17T09:36:10.093Z,27.81
2023-06-17T09:38:39.667Z,28.09
2023-06-17T09:41:09.504Z,28.23
2023-06-17T09:43:40.114Z,28.37
2023-06-17T09:46:12.827Z,28.47
2023-06-17T09:48:41.791Z,28.61
2023-06-17T09:51:13.631Z,28.80
2023-06-17T09:53:43.498Z,28.81
2023-06-17T09:56:14.061Z,28.74
2023-06-17T09:58:44.700Z,28.71
2023-06-17T10:01:14.865Z,28.77
2023-06-17T10:03:43.961Z,28.82
2023-06-17T10:06:14.589Z,29.08
2023-06-17T10:08:45.047Z,29.45
2023-06-17T10:11:14.868Z,29.64
2023-06-17T10:13:44.813Z,29.40
2023-06-17T10:16:17.072Z,29.18
2023-06-17T10:18:48.978Z,29.16
2023-06-17T10:21:19.380Z,29.36
2023-06-17T10:23:49.941Z,29.67
2023-06-17T10:26:21.140Z,29.87
2023-06-17T10:28:55.634Z,30.26
2023-06-17T10:31:30.764Z,30.69
2023-06-17T10:34:05.128Z,30.80
2023-06-17T10:36:37.453Z,30.55
2023-06-17T10:39:08.978Z,30.43
2023-06-17T10:41:40.371Z,30.52
2023-06-17T10:44:51.269Z,30.74
2023-06-17T10:47:22.538Z,30.88
2023-06-17T10:49:53.802Z,31.10
2023-06-17T10:52:22.254Z,31.38
2023-06-17T10:54:55.843Z,31.53
2023-06-17T10:57:35.919Z,31.63
2023-06-17T11:00:10.536Z,31.52
2023-06-17T11:02:40.135Z,31.21
2023-06-17T11:05:09.797Z,31.02
2023-06-17T11:07:38.307Z,31.21
2023-06-17T11:10:07.343Z,31.56
2023-06-17T11:12:36.023Z,31.80
2023-06-17T11:15:07.205Z,31.76
2023-06-17T11:17:37.916Z,31.52
2023-06-17T11:20:08.316Z,31.43
2023-06-17T11:22:40.866Z,31.49
2023-06-17T11:25:13.131Z,31.83
2023-06-17T11:27:42.531Z,32.20
2023-06-17T11:30:13.581Z,32.61
2023-06-17T11:32:43.107Z,32.46
2023-06-17T11:35:12.290Z,31.79
2023-06-17T11:37:40.746Z,31.18
2023-06-17T11:40:13.514Z,30.43
2023-06-17T11:42:42.253Z,29.80
2023-06-17T11:45:12.596Z,29.25
2023-06-17T11:47:41.550Z,29.30
2023-06-17T11:50:10.843Z,29.97
2023-06-17T11:52:39.407Z,30.66
2023-06-17T11:55:15.366Z,30.62
2023-06-17T11:57:45.082Z,30.36
2023-06-17T12:00:17.024Z,29.98
2023-06-17T12:02:45.863Z,29.85
2023-06-17T12:05:14.535Z,29.67
2023-06-17T12:07:48.166Z,29.53
2023-06-17T12:10:19.188Z,29.63
2023-06-17T12:12:49.057Z,29.67
2023-06-17T12:15:17.868Z,29.60
2023-06-17T12:17:47.925Z,29.23
2023-06-17T12:20:20.908Z,28.86
2023-06-17T12:22:51.755Z,28.49
2023-06-17T12:25:20.721Z,28.20
2023-06-17T12:27:51.680Z,28.19
2023-06-17T12:30:20.351Z,28.50
2023-06-17T12:32:49.020Z,28.67
2023-06-17T12:35:17.976Z,29.30
2023-06-17T12:37:49.626Z,29.98
2023-06-17T12:40:18.122Z,30.28
2023-06-17T12:42:46.538Z,30.19
2023-06-17T12:45:15.354Z,30.74
2023-06-17T12:47:43.951Z,31.63
2023-06-17T12:50:12.691Z,32.35
2023-06-17T12:52:42.857Z,32.10
2023-06-17T12:55:11.457Z,31.36
2023-06-17T12:57:40.029Z,30.67
2023-06-17T13:00:10.001Z,30.04
2023-06-17T13:02:38.816Z,29.63
2023-06-17T13:05:08.756Z,29.92
2023-06-17T13:07:37.615Z,30.53
2023-06-17T13:10:06.639Z,31.11
2023-06-17T13:12:35.256Z,31.62
2023-06-17T13:15:04.728Z,31.91
2023-06-17T13:17:33.938Z,32.07
2023-06-17T13:20:04.609Z,31.47
2023-06-17T13:22:35.343Z,30.60
2023-06-17T13:25:04.829Z,29.94
2023-06-17T13:27:34.180Z,29.36
2023-06-17T13:30:02.713Z,29.53
2023-06-17T13:32:32.972Z,30.24
2023-06-17T13:35:05.950Z,31.14
2023-06-17T13:37:34.509Z,31.96
2023-06-17T13:40:03.570Z,32.48
2023-06-17T13:42:33.746Z,32.65
2023-06-17T13:45:08.416Z,32.96
2023-06-17T13:47:36.828Z,33.27
2023-06-17T13:50:05.572Z,33.54
2023-06-17T13:52:34.000Z,33.65
2023-06-17T13:55:03.371Z,33.75
2023-06-17T13:57:34.254Z,33.79
2023-06-17T14:00:02.759Z,33.90
2023-06-17T14:02:33.559Z,33.99
2023-06-17T14:05:02.317Z,33.79
2023-06-17T14:07:31.605Z,33.47
2023-06-17T14:10:04.384Z,33.27
2023-06-17T14:12:35.790Z,33.33
2023-06-17T14:15:06.582Z,33.28
2023-06-17T14:17:35.012Z,33.31
2023-06-17T14:20:03.496Z,33.45
2023-06-17T14:22:32.621Z,33.50
2023-06-17T14:25:01.135Z,33.57
2023-06-17T14:27:41.050Z,33.06
2023-06-17T14:30:14.435Z,32.86
2023-06-17T14:32:44.928Z,32.96
2023-06-17T14:35:16.022Z,33.04
2023-06-17T14:37:46.530Z,33.02
2023-06-17T14:40:15.980Z,33.13
2023-06-17T14:42:45.957Z,33.16
2023-06-17T14:45:17.293Z,33.16
2023-06-17T14:47:46.222Z,33.20
2023-06-17T14:50:15.841Z,33.38
2023-06-17T14:52:48.827Z,33.40
2023-06-17T14:55:17.646Z,33.10
2023-06-17T14:57:46.383Z,32.38
2023-06-17T15:00:15.288Z,31.61
2023-06-17T15:03:11.595Z,31.17
2023-06-17T15:05:40.368Z,31.12
2023-06-17T15:08:10.369Z,31.27
2023-06-17T15:10:39.285Z,31.62
2023-06-17T15:13:09.488Z,31.97
2023-06-17T15:15:45.714Z,32.11
2023-06-17T15:18:15.008Z,32.24
2023-06-17T15:20:43.430Z,32.38
2023-06-17T15:23:11.832Z,32.44
2023-06-17T15:25:40.361Z,32.46
2023-06-17T15:28:08.902Z,32.65
2023-06-17T15:30:38.530Z,32.72
2023-06-17T15:33:07.371Z,32.75
2023-06-17T15:35:35.926Z,32.80
2023-06-17T15:38:05.657Z,32.80
2023-06-17T15:40:34.121Z,32.75
2023-06-17T15:43:02.541Z,32.72
2023-06-17T15:45:31.101Z,32.62
2023-06-17T15:47:59.783Z,32.55
2023-06-17T15:50:28.629Z,32.62
2023-06-17T15:52:57.215Z,32.42
2023-06-17T15:55:25.840Z,32.28
2023-06-17T15:57:54.338Z,32.17
2023-06-17T16:00:23.007Z,32.01
2023-06-17T16:02:51.746Z,31.80
2023-06-17T16:05:20.384Z,31.50
2023-06-17T16:07:48.871Z,31.25
2023-06-17T16:10:17.477Z,31.17
2023-06-17T16:12:46.308Z,31.24
2023-06-17T16:15:14.927Z,31.27
2023-06-17T16:17:43.575Z,31.32
2023-06-17T16:20:12.446Z,31.28
2023-06-17T16:22:41.007Z,30.98
2023-06-17T16:25:09.862Z,30.67
2023-06-17T16:27:44.373Z,30.45
2023-06-17T16:30:13.051Z,30.33
2023-06-17T16:32:41.522Z,30.21
2023-06-17T16:35:10.140Z,30.09
2023-06-17T16:37:38.869Z,30.11
2023-06-17T16:40:10.326Z,30.02
2023-06-17T16:42:44.371Z,29.94
2023-06-17T16:45:17.720Z,29.90
2023-06-17T16:47:46.179Z,29.78
2023-06-17T16:50:14.662Z,29.60
2023-06-17T16:52:43.163Z,29.49
2023-06-17T16:55:11.886Z,29.36
2023-06-17T16:57:40.376Z,29.18
2023-06-17T17:00:09.477Z,29.02
2023-06-17T17:02:38.192Z,28.86
2023-06-17T17:05:07.264Z,28.67
2023-06-17T17:07:35.846Z,28.50
2023-06-17T17:10:04.524Z,28.15
2023-06-17T17:12:33.404Z,27.91
2023-06-17T17:15:02.285Z,27.55
2023-06-17T17:17:32.069Z,27.26
2023-06-17T17:20:01.596Z,26.99
2023-06-17T17:22:30.003Z,26.81
2023-06-17T17:24:58.391Z,26.68
2023-06-17T17:27:26.832Z,26.51
2023-06-17T17:29:55.288Z,26.32
2023-06-17T17:32:23.885Z,26.13
2023-06-17T17:34:52.499Z,25.95
2023-06-17T17:37:21.030Z,25.72
2023-06-17T17:39:50.404Z,25.45
2023-06-17T17:42:18.861Z,25.23
2023-06-17T17:44:47.436Z,25.03
2023-06-17T17:47:16.136Z,24.88
2023-06-17T17:49:45.551Z,24.62
2023-06-17T17:52:14.068Z,24.45
2023-06-17T17:54:57.077Z,24.30
2023-06-17T17:57:30.700Z,24.12
2023-06-17T17:59:59.299Z,23.96
2023-06-17T18:02:27.850Z,23.72
2023-06-17T18:04:56.185Z,23.54
2023-06-17T18:07:25.237Z,23.32
2023-06-17T18:09:54.393Z,23.13
2023-06-17T18:12:25.241Z,22.95
2023-06-17T18:14:53.801Z,22.79
2023-06-17T18:17:22.699Z,22.59
2023-06-17T18:19:51.491Z,22.45
2023-06-17T18:22:20.333Z,22.31
2023-06-17T18:24:52.460Z,22.15
2023-06-17T18:27:34.458Z,22.01
2023-06-17T18:30:05.615Z,21.86
2023-06-17T18:32:35.633Z,21.67
2023-06-17T18:35:04.393Z,21.55
2023-06-17T18:37:33.826Z,21.41
2023-06-17T18:40:03.563Z,21.31
2023-06-17T18:42:34.351Z,21.21
2023-06-17T18:45:02.826Z,21.07
2023-06-17T18:47:33.128Z,20.97
2023-06-17T18:50:02.206Z,20.86
2023-06-17T18:52:32.485Z,20.70
2023-06-17T18:55:01.917Z,20.56
2023-06-17T18:57:32.118Z,20.40
2023-06-17T19:00:00.890Z,20.29
2023-06-17T19:02:31.348Z,20.14
2023-06-17T19:05:01.519Z,20.01
2023-06-17T19:07:30.176Z,19.81
2023-06-17T19:09:59.813Z,19.67
2023-06-17T19:12:31.936Z,19.50
2023-06-17T19:15:00.933Z,19.38
2023-06-17T19:17:29.550Z,19.23
2023-06-17T19:20:00.894Z,19.07
2023-06-17T19:22:29.418Z,18.97
2023-06-17T19:24:58.745Z,18.88
2023-06-17T19:27:27.481Z,18.78
2023-06-17T19:30:00.131Z,18.68
2023-06-17T19:32:29.787Z,18.60
2023-06-17T19:35:00.241Z,18.53
2023-06-17T19:37:30.524Z,18.47
2023-06-17T19:39:59.508Z,18.46
2023-06-17T19:42:27.902Z,18.39
2023-06-17T19:44:58.925Z,18.35
2023-06-17T19:47:28.845Z,18.22
2023-06-17T19:49:58.148Z,18.13
2023-06-17T19:52:26.530Z,18.01
2023-06-17T19:54:54.997Z,17.95
2023-06-17T19:57:23.446Z,17.90
2023-06-17T19:59:52.365Z,17.81
2023-06-17T20:02:22.055Z,17.73
2023-06-17T20:04:50.590Z,17.67
2023-06-17T20:07:19.710Z,17.60
2023-06-17T20:09:48.150Z,17.53
2023-06-17T20:12:16.807Z,17.47
2023-06-17T20:14:45.836Z,17.42
2023-06-17T20:17:14.421Z,17.40
2023-06-17T20:19:42.918Z,17.35
2023-06-17T20:22:11.433Z,17.28
2023-06-17T20:24:39.908Z,17.20
2023-06-17T20:27:09.453Z,17.14
2023-06-17T20:29:41.099Z,17.09
2023-06-17T20:32:09.732Z,17.01
2023-06-17T20:34:38.146Z,16.95
2023-06-17T20:37:07.373Z,16.92
2023-06-17T20:39:38.256Z,16.88
2023-06-17T20:42:07.161Z,16.82
2023-06-17T20:44:36.450Z,16.80
2023-06-17T20:47:05.286Z,16.75
2023-06-17T20:49:33.827Z,16.71
2023-06-17T20:52:02.316Z,16.65
2023-06-17T20:54:30.945Z,16.59
2023-06-17T20:56:59.684Z,16.56
2023-06-17T20:59:29.825Z,16.49
2023-06-17T21:01:59.395Z,16.40
2023-06-17T21:04:27.891Z,16.32
2023-06-17T21:06:56.470Z,16.25
2023-06-17T21:09:25.746Z,16.10
2023-06-17T21:11:54.138Z,16.02
2023-06-17T21:14:22.621Z,15.95
2023-06-17T21:16:51.272Z,15.88
2023-06-17T21:19:19.924Z,15.78
2023-06-17T21:21:48.329Z,15.71
2023-06-17T21:24:16.927Z,15.63
2023-06-17T21:26:45.399Z,15.57
2023-06-17T21:29:13.884Z,15.49
2023-06-17T21:31:42.301Z,15.42
2023-06-17T21:34:10.818Z,15.37
2023-06-17T21:36:40.901Z,15.33
2023-06-17T21:39:09.412Z,15.32
2023-06-17T21:41:37.814Z,15.26
2023-06-17T21:44:06.392Z,15.19
2023-06-17T21:46:34.952Z,15.13
2023-06-17T21:49:03.463Z,15.13
2023-06-17T21:51:31.951Z,15.18
2023-06-17T21:54:00.575Z,15.10
2023-06-17T21:56:34.080Z,15.06
2023-06-17T21:59:02.694Z,15.03
2023-06-17T22:01:31.209Z,14.99
2023-06-17T22:03:59.850Z,14.96
2023-06-17T22:06:28.939Z,14.96
2023-06-17T22:08:57.347Z,14.92
2023-06-17T22:11:26.534Z,14.84
2023-06-17T22:13:55.169Z,14.75
2023-06-17T22:16:23.890Z,14.67
2023-06-17T22:18:52.708Z,14.60
2023-06-17T22:21:21.243Z,14.50
2023-06-17T22:23:49.731Z,14.44
2023-06-17T22:26:19.426Z,14.40
2023-06-17T22:28:47.909Z,14.37
2023-06-17T22:31:16.833Z,14.32
2023-06-17T22:33:45.249Z,14.26
2023-06-17T22:36:13.773Z,14.20
2023-06-17T22:38:42.713Z,14.17
2023-06-17T22:41:11.201Z,14.09
2023-06-17T22:43:39.653Z,14.06
2023-06-17T22:46:09.650Z,14.02
2023-06-17T22:48:38.421Z,13.97
2023-06-17T22:51:07.639Z,13.91
2023-06-17T22:53:36.202Z,13.88
2023-06-17T22:56:04.756Z,13.81
2023-06-17T22:58:33.206Z,13.77
2023-06-17T23:01:01.772Z,13.71
2023-06-17T23:03:30.338Z,13.65
2023-06-17T23:05:59.224Z,13.58
2023-06-17T23:08:28.914Z,13.57
2023-06-17T23:10:57.243Z,13.48
2023-06-17T23:13:26.631Z,13.44
2023-06-17T23:15:55.113Z,13.34
2023-06-17T23:18:23.600Z,13.30
2023-06-17T23:20:52.076Z,13.26
2023-06-17T23:23:22.106Z,13.22
2023-06-17T23:25:51.046Z,13.13
2023-06-17T23:28:19.505Z,13.07
2023-06-17T23:30:48.007Z,13.02
2023-06-17T23:33:16.554Z,12.98
2023-06-17T23:35:45.379Z,12.92
2023-06-17T23:38:14.257Z,12.89
2023-06-17T23:40:42.872Z,12.84
2023-06-17T23:43:11.602Z,12.79
2023-06-17T23:45:41.326Z,12.75
2023-06-17T23:48:11.168Z,12.72
2023-06-17T23:50:40.858Z,12.68
2023-06-17T23:53:10.434Z,12.61
2023-06-17T23:55:39.850Z,12.55
2023-06-17T23:58:08.618Z,12.50
